Terminal Aerodrome Forecast
Issued by NWS

Home | Current Version | Previous Version | Text Only | Print | Product List | Glossary On
Versions: 1 2 3 4 5 6 7 8 9 10 11 12 13 14 15 16 17 18 19 20 21 22 23 24 25 26 27
000
FTUS41 KOKX 020200 AAA
TAFSWF
TAF AMD
KSWF 020234Z 0203/0306 VRB03KT P6SM FEW020 SCT050 BKN150
     FM020800 VRB03KT 4SM BR SCT020 SCT050 BKN150
      TEMPO 0209/0212 2SM BR
     FM021400 24007KT P6SM FEW020 SCT050
     FM021600 23009KT P6SM SCT050
     FM022300 25007KT P6SM SCT050 BKN150 PROB30 0223/0305 SHRA
      BKN050
      AMD NOT SKED=

USA.gov is the U.S. government's official web portal to all federal, state and local government web resources and services.